Barbara Foss — WYL4318 — position and weather

sailwx.info

Track history (hours):
 
Tides and Currents Weather Stations Pressure Air Temp Water Temp Dewpoint Dewpoint Depression Visibility Wind Speed Wind Dir Waves Ship Positions

Barbara Foss

Owner: Foss International, Inc, SEATTLE, WA. More information available from US FCC via Universal Licensing System and Coast Guard Vessel Documentation Center.

Last reported at 2015-May-29 03:34 UTC. Time now 2015-May-29 04:11 UTC.
Position N 47°38' W 122°23'.

Length 39 m; draft 5.5 m.

Type: Tow > 200 m length. MMSI: 366932130.

Date/timePositionNaut miles runAvg speedWind from/ knotsBaromVisibWave heightAir tempDewpointWater temp
2015-May-29 03:34N 47°38' W 122°23'0 0.0
2015-May-29 03:18N 47°38' W 122°23'0 0.0
2015-May-29 02:34N 47°38' W 122°23'0 0.0
2015-May-29 02:18N 47°38' W 122°23'0 0.0
2015-May-29 01:28N 47°38' W 122°23'0 0.0
2015-May-29 01:03N 47°38' W 122°23'0 0.0
2015-May-29 00:33N 47°38' W 122°23'0 0.0
2015-May-29 00:31N 47°38' W 122°23'0 0.0
2015-May-28 23:34N 47°38' W 122°23'0 0.0
2015-May-28 23:27N 47°38' W 122°23'0 0.0
2015-May-28 22:31N 47°38' W 122°23'0 0.0
2015-May-28 22:27N 47°38' W 122°23'0 0.0
2015-May-28 21:31N 47°38' W 122°23'0 0.0
2015-May-28 21:27N 47°38' W 122°23'0 0.0
2015-May-28 20:34N 47°38' W 122°23'0 0.0
2015-May-28 20:21N 47°38' W 122°23'0 0.0
2015-May-28 19:34N 47°38' W 122°23'0 0.0
2015-May-28 19:30N 47°38' W 122°23'0 0.0
2015-May-28 18:28N 47°38' W 122°23'0 0.0
2015-May-28 17:48N 47°38' W 122°23'0 0.0
2015-May-28 17:31N 47°38' W 122°23'0 0.0
2015-May-28 17:18N 47°38' W 122°23'0 0.0
2015-May-28 16:31N 47°38' W 122°23'0 0.0
2015-May-28 16:27N 47°38' W 122°23'0 0.0
2015-May-28 15:28N 47°38' W 122°23'0 0.0
2015-May-28 15:27N 47°38' W 122°23'0 0.0
2015-May-28 14:31N 47°38' W 122°23'0 0.0
2015-May-28 14:27N 47°38' W 122°23'0 0.0
2015-May-28 13:31N 47°38' W 122°23'0 0.0
2015-May-28 13:27N 47°38' W 122°23'0 0.0
2015-May-28 12:31N 47°38' W 122°23'0 0.0
2015-May-28 12:21N 47°38' W 122°23'0 0.0
2015-May-28 11:33N 47°38' W 122°23'0 0.0
2015-May-28 11:32N 47°38' W 122°23'2 1.7
2015-May-28 10:33N 47°36' W 122°23'0 6.5
2015-May-28 10:32N 47°36' W 122°23'7 7.0
2015-May-28 09:33N 47°43' W 122°26'0 7.5
2015-May-28 09:32N 47°43' W 122°26'8 7.9
2015-May-28 08:33N 47°51' W 122°23'8 8.0
2015-May-28 07:33N 47°58' W 122°17'3 1.4
2015-May-28 05:31N 47°59' W 122°13'0 0.0
2015-May-28 04:31N 47°59' W 122°13'0 0.0
2015-May-28 03:25N 47°59' W 122°13'3 3.9
2015-May-28 02:34N 47°57' W 122°18'5 8.3
2015-May-28 01:59N 47°53' W 122°21'4 8.8
2015-May-28 01:33N 47°50' W 122°24'1 9.1
2015-May-28 01:29N 47°49' W 122°24'9 9.4
2015-May-28 00:33N 47°41' W 122°27'2 8.9
2015-May-28 00:19N 47°39' W 122°26'3 3.7
2015-May-27 23:33N 47°37' W 122°23'0 9.4
2015-May-27 23:33N 47°37' W 122°23'2 0.9
2015-May-27 21:22N 47°35' W 122°21'0 0.0
2015-May-27 21:22N 47°35' W 122°21'0 0.0
2015-May-27 20:07N 47°35' W 122°21'0 0.0
2015-May-27 20:07N 47°35' W 122°21'0 0.0
2015-May-27 19:01N 47°35' W 122°21'0 0.0
2015-May-27 18:16N 47°35' W 122°21'0 0.0
2015-May-27 16:59N 47°35' W 122°21'2 3.6
2015-May-27 16:34N 47°37' W 122°22'014.4
2015-May-27 16:33N 47°37' W 122°22'1 1.3
2015-May-27 15:33N 47°38' W 122°23'0 0.0
2015-May-27 14:33N 47°38' W 122°23'0 0.0
2015-May-27 14:33N 47°38' W 122°23'0 0.0
2015-May-27 13:33N 47°38' W 122°23'0 0.0
2015-May-27 13:33N 47°38' W 122°23'0 0.0
2015-May-27 12:33N 47°38' W 122°23'0 0.0
2015-May-27 12:12N 47°38' W 122°23'0 0.0
2015-May-27 11:33N 47°38' W 122°23'0 0.0
2015-May-27 11:27N 47°38' W 122°23'0 0.0
2015-May-27 10:33N 47°38' W 122°23'0 0.0
2015-May-27 10:27N 47°38' W 122°23'0 0.0
2015-May-27 09:33N 47°38' W 122°23'0 0.0
2015-May-27 09:27N 47°38' W 122°23'0 0.0
2015-May-27 08:33N 47°38' W 122°23'0 0.0
2015-May-27 08:27N 47°38' W 122°23'0 0.0
2015-May-27 07:33N 47°38' W 122°23'0 0.0
2015-May-27 07:06N 47°38' W 122°23'0 0.0
2015-May-27 06:33N 47°38' W 122°23'0 0.0
2015-May-27 06:21N 47°38' W 122°23'0 0.0
2015-May-27 06:06N 47°38' W 122°23'0 0.0
2015-May-27 05:27N 47°38' W 122°23'0 0.0
2015-May-27 04:33N 47°38' W 122°23'0 0.0
2015-May-27 04:21N 47°38' W 122°23'0 0.0
2015-May-27 03:33N 47°38' W 122°23'0 0.0
2015-May-27 03:30N 47°38' W 122°23'0 0.0
2015-May-27 02:33N 47°38' W 122°23'0 0.0
2015-May-27 02:30N 47°38' W 122°23'0 0.0
2015-May-27 01:33N 47°38' W 122°23'0 0.0
2015-May-27 01:09N 47°38' W 122°23'0 0.0
2015-May-27 00:33N 47°38' W 122°23'0 0.0
2015-May-27 00:24N 47°38' W 122°23'0 0.0
2015-May-26 23:33N 47°38' W 122°23'0 0.0
2015-May-26 23:09N 47°38' W 122°23'0 0.0
2015-May-26 22:33N 47°38' W 122°23'0 0.0
2015-May-26 22:24N 47°38' W 122°23'0 0.0
2015-May-26 21:33N 47°38' W 122°23'0 2.6
2015-May-26 21:29N 47°38' W 122°23'9 9.3
2015-May-26 20:34N 47°46' W 122°25'010.8
2015-May-26 20:33N 47°46' W 122°25'1212.2
2015-May-26 19:33N 47°57' W 122°18'3 3.4
2015-May-26 18:32N 47°59' W 122°13'0 0.0
2015-May-26 17:29N 47°59' W 122°13'0 0.0
2015-May-26 16:29N 47°59' W 122°13'0 0.0
2015-May-26 15:29N 47°59' W 122°13'0 0.0
2015-May-26 14:23N 47°59' W 122°13'0 0.0
2015-May-26 13:32N 47°59' W 122°13'0 0.0
2015-May-26 12:29N 47°59' W 122°13'0 0.0
2015-May-26 11:29N 47°59' W 122°13'0 0.0
2015-May-26 10:23N 47°59' W 122°13'0 0.0
2015-May-26 09:17N 47°59' W 122°13'0 0.0
2015-May-26 08:32N 47°59' W 122°13'0 0.0
2015-May-26 07:32N 47°59' W 122°13'0 0.0
2015-May-26 06:32N 47°59' W 122°13'0 0.0
2015-May-26 05:29N 47°59' W 122°13'0 0.0
2015-May-26 04:05N 47°59' W 122°13'0 0.0
2015-May-26 03:17N 47°59' W 122°13'0 0.0
2015-May-26 02:32N 47°59' W 122°13'0 0.0
2015-May-26 01:29N 47°59' W 122°13'0 0.0
2015-May-26 00:32N 47°59' W 122°13'0 0.0
2015-May-25 23:23N 47°59' W 122°13'0 0.0
2015-May-25 22:29N 47°59' W 122°13'0 0.0
2015-May-25 21:29N 47°59' W 122°13'0 0.0
2015-May-25 20:32N 47°59' W 122°13'0 0.0
2015-May-25 19:17N 47°59' W 122°13'0 0.0
2015-May-25 18:29N 47°59' W 122°13'0 0.0
2015-May-25 17:29N 47°59' W 122°13'0 0.0
2015-May-25 16:29N 47°59' W 122°13'0 0.0
2015-May-25 15:29N 47°59' W 122°13'0 0.0
2015-May-25 14:29N 47°59' W 122°13'0 0.0
2015-May-25 13:29N 47°59' W 122°13'0 0.0
2015-May-25 12:29N 47°59' W 122°13'0 0.0
2015-May-25 11:29N 47°59' W 122°13'0 0.0
2015-May-25 10:17N 47°59' W 122°13'0 0.0
2015-May-25 09:11N 47°59' W 122°13'0 0.0
2015-May-25 08:29N 47°59' W 122°13'0 0.0
2015-May-25 07:29N 47°59' W 122°13'0 0.0
2015-May-25 06:32N 47°59' W 122°13'0 0.0
2015-May-25 05:32N 47°59' W 122°13'0 0.0
2015-May-25 04:29N 47°59' W 122°13'0 0.0
2015-May-25 03:29N 47°59' W 122°13'0 0.0
2015-May-25 01:11N 47°59' W 122°13'0 0.0
2015-May-25 00:32N 47°59' W 122°13'0 0.0
2015-May-24 23:32N 47°59' W 122°13'0 0.0
2015-May-24 22:32N 47°59' W 122°13'0 0.0
2015-May-24 21:32N 47°59' W 122°13'0 0.0
2015-May-24 20:32N 47°59' W 122°13'0 0.0
2015-May-24 19:29N 47°59' W 122°13'0 0.0
2015-May-24 18:32N 47°59' W 122°13'0 0.0
2015-May-24 17:23N 47°59' W 122°13'0 0.0
2015-May-24 16:26N 47°59' W 122°13'0 0.1
2015-May-24 15:33N 47°59' W 122°13'4 4.4
2015-May-24 14:33N 47°57' W 122°19'4 8.9
2015-May-24 14:04N 47°53' W 122°22'5 9.9
2015-May-24 13:34N 47°48' W 122°25'1 9.8
2015-May-24 13:29N 47°48' W 122°25'910.1
2015-May-24 12:34N 47°38' W 122°26'1 9.8
2015-May-24 12:29N 47°38' W 122°25'1 1.4
2015-May-24 11:31N 47°38' W 122°23'0 0.0
2015-May-24 11:19N 47°38' W 122°23'0 0.0
2015-May-24 10:34N 47°38' W 122°23'0 0.0
2015-May-24 10:31N 47°38' W 122°23'0 0.0
2015-May-24 09:31N 47°38' W 122°23'0 0.0
2015-May-24 09:28N 47°38' W 122°23'0 0.0
2015-May-24 08:31N 47°38' W 122°23'0 0.0
2015-May-24 08:28N 47°38' W 122°23'0 0.0
2015-May-24 07:31N 47°38' W 122°23'0 0.0
2015-May-24 07:28N 47°38' W 122°23'0 0.0
2015-May-24 06:31N 47°38' W 122°23'0 0.0
2015-May-24 06:28N 47°38' W 122°23'0 0.0
2015-May-24 05:58N 47°38' W 122°23'0 0.0
2015-May-24 05:31N 47°38' W 122°23'0 0.0
2015-May-24 04:31N 47°38' W 122°23'0 0.0
2015-May-24 04:22N 47°38' W 122°23'0 0.0
2015-May-24 03:25N 47°38' W 122°23'0 0.0
2015-May-24 03:22N 47°38' W 122°23'0 0.0
2015-May-24 02:31N 47°38' W 122°23'0 0.0
2015-May-24 02:22N 47°38' W 122°23'0 0.0
2015-May-24 01:31N 47°38' W 122°23'0 0.0
2015-May-24 01:22N 47°38' W 122°23'0 0.0
2015-May-24 00:31N 47°38' W 122°23'0 0.0
2015-May-24 00:31N 47°38' W 122°23'0 0.0
2015-May-23 23:25N 47°38' W 122°23'0 0.0
2015-May-23 23:22N 47°38' W 122°23'0 0.0
2015-May-23 22:31N 47°38' W 122°23'0 0.0
2015-May-23 21:31N 47°38' W 122°23'0 0.0
2015-May-23 20:31N 47°38' W 122°23'0 0.0
2015-May-23 20:19N 47°38' W 122°23'0 0.0
2015-May-23 19:31N 47°38' W 122°23'0 0.0
2015-May-23 18:31N 47°38' W 122°23'0 0.0
2015-May-23 17:28N 47°38' W 122°23'0 0.0
2015-May-23 17:13N 47°38' W 122°23'0 0.0
2015-May-23 16:28N 47°38' W 122°23'0 0.0
2015-May-23 15:28N 47°38' W 122°23'0 0.0
2015-May-23 15:01N 47°38' W 122°23'0 0.0
2015-May-23 14:31N 47°38' W 122°23'0 0.0
2015-May-23 13:25N 47°38' W 122°23'0 0.0
2015-May-23 12:31N 47°38' W 122°23'0 0.0
2015-May-23 11:31N 47°38' W 122°23'0 0.0
2015-May-23 11:19N 47°38' W 122°23'0 0.0
2015-May-23 10:31N 47°38' W 122°23'0 0.0
2015-May-23 09:31N 47°38' W 122°23'0 0.0
2015-May-23 08:28N 47°38' W 122°23'0 0.0
2015-May-23 07:28N 47°38' W 122°23'0 0.0
2015-May-23 06:52N 47°38' W 122°23'0 0.0
2015-May-23 06:28N 47°38' W 122°23'0 0.0
2015-May-23 06:22N 47°38' W 122°23'0 0.0
2015-May-23 05:52N 47°38' W 122°23'0 0.0
2015-May-23 05:28N 47°38' W 122°23'0 0.0
2015-May-23 04:28N 47°38' W 122°23'0 0.0
2015-May-23 03:22N 47°38' W 122°23'0 0.0
2015-May-23 03:16N 47°38' W 122°23'0 0.0
2015-May-23 02:31N 47°38' W 122°23'0 0.0
2015-May-23 02:31N 47°38' W 122°23'0 0.0
2015-May-23 01:33N 47°38' W 122°23'0 0.0
2015-May-23 01:24N 47°38' W 122°23'2 2.4
2015-May-23 00:29N 47°40' W 122°24'0 0.0
2015-May-23 00:29N 47°40' W 122°24'0 0.2
2015-May-22 23:27N 47°40' W 122°24'0 0.0
2015-May-22 23:24N 47°40' W 122°24'0 0.1
2015-May-22 22:26N 47°40' W 122°23'0 1.7
2015-May-22 22:24N 47°40' W 122°23'1 1.3
2015-May-22 21:32N 47°39' W 122°22'0 0.0
2015-May-22 21:23N 47°39' W 122°22'0 0.0
2015-May-22 20:26N 47°39' W 122°22'0 0.0
2015-May-22 20:08N 47°39' W 122°22'0 0.1
2015-May-22 19:32N 47°39' W 122°22'0 0.0
2015-May-22 19:08N 47°39' W 122°22'0 0.0
2015-May-22 18:32N 47°39' W 122°22'0 0.0
2015-May-22 18:32N 47°39' W 122°22'0 0.1
2015-May-22 17:23N 47°39' W 122°22'0 0.0
2015-May-22 16:41N 47°39' W 122°22'0 0.0
2015-May-22 16:23N 47°39' W 122°22'0 0.0
2015-May-22 14:59N 47°39' W 122°22'0 0.0
2015-May-22 14:23N 47°39' W 122°22'0 0.0
2015-May-22 13:29N 47°39' W 122°22'0 0.0
2015-May-22 12:11N 47°39' W 122°22'0 0.0
2015-May-22 11:47N 47°39' W 122°22'0 0.0
2015-May-22 11:17N 47°39' W 122°22'0 0.0
2015-May-22 11:17N 47°39' W 122°22'0 0.0
2015-May-22 10:29N 47°39' W 122°22'0 0.0
2015-May-22 10:17N 47°39' W 122°22'0 0.0
2015-May-22 09:32N 47°39' W 122°22'0 0.0
2015-May-22 09:32N 47°39' W 122°22'0 0.0
2015-May-22 08:11N 47°39' W 122°22'0 0.0
2015-May-22 08:05N 47°39' W 122°22'0 0.0
2015-May-22 07:23N 47°39' W 122°22'0 0.0
2015-May-22 07:00N 47°39' W 122°22'1 2.6
2015-May-22 06:33N 47°40' W 122°23'0 4.4
2015-May-22 06:30N 47°40' W 122°24'4 5.4
2015-May-22 05:45N 47°44' W 122°25'212.5
2015-May-22 05:33N 47°46' W 122°25'1211.6
2015-May-22 04:34N 47°57' W 122°19'4 3.7
2015-May-22 03:28N 47°59' W 122°14'0 0.1
2015-May-22 01:28N 47°59' W 122°13'0 0.0
2015-May-22 00:31N 47°59' W 122°13'0 0.0
2015-May-21 23:31N 47°59' W 122°13'0 0.0
2015-May-21 22:28N 47°59' W 122°13'0 0.0
2015-May-21 21:19N 47°59' W 122°13'0 0.0
2015-May-21 20:28N 47°59' W 122°13'0 0.0
2015-May-21 18:28N 47°59' W 122°13'0 0.0
2015-May-21 17:22N 47°59' W 122°13'0 0.0
2015-May-21 16:28N 47°59' W 122°13'0 0.0
2015-May-21 15:16N 47°59' W 122°13'0 0.0
2015-May-21 13:22N 47°59' W 122°13'0 0.0
2015-May-21 12:28N 47°59' W 122°13'0 0.0
2015-May-21 11:28N 47°59' W 122°13'0 0.0
2015-May-21 10:28N 47°59' W 122°13'0 0.0
2015-May-21 09:28N 47°59' W 122°13'0 0.0
2015-May-21 08:28N 47°59' W 122°13'0 0.0
2015-May-21 07:22N 47°59' W 122°13'0 0.0
2015-May-21 06:22N 47°59' W 122°13'0 0.0
2015-May-21 05:31N 47°59' W 122°13'0 0.0
2015-May-21 04:28N 47°59' W 122°13'0 0.0
2015-May-21 03:28N 47°59' W 122°13'0 0.0
2015-May-21 02:22N 47°59' W 122°13'0 0.0
2015-May-21 01:28N 47°59' W 122°13'0 0.0
2015-May-21 00:16N 47°59' W 122°13'0 0.0
2015-May-20 23:16N 47°59' W 122°13'0 0.0
2015-May-20 22:28N 47°59' W 122°13'0 0.0
2015-May-20 21:28N 47°59' W 122°13'0 0.0
2015-May-20 20:28N 47°59' W 122°13'0 0.0
2015-May-20 19:28N 47°59' W 122°13'0 0.0
2015-May-20 18:28N 47°59' W 122°13'0 0.0
2015-May-20 17:28N 47°59' W 122°13'0 0.0
2015-May-20 16:28N 47°59' W 122°13'0 0.0
2015-May-20 15:28N 47°59' W 122°13'0 0.0
2015-May-20 14:28N 47°59' W 122°13'0 0.0
2015-May-20 13:28N 47°59' W 122°13'0 0.0
2015-May-20 12:28N 47°59' W 122°13'0 0.0
2015-May-20 11:22N 47°59' W 122°13'0 0.0
2015-May-20 10:28N 47°59' W 122°13'0 0.0
2015-May-20 09:28N 47°59' W 122°13'0 0.0
2015-May-20 08:22N 47°59' W 122°13'0 0.0
2015-May-20 07:28N 47°59' W 122°13'0 0.0
2015-May-20 06:16N 47°59' W 122°13'0 0.0
2015-May-20 05:28N 47°59' W 122°13'0 0.0
2015-May-20 04:28N 47°59' W 122°13'0 0.0
2015-May-20 03:16N 47°59' W 122°13'0 0.0
2015-May-20 01:28N 47°59' W 122°13'0 0.0
2015-May-20 00:28N 47°59' W 122°13'0 0.0
2015-May-19 23:28N 47°59' W 122°13'0 0.0
2015-May-19 21:31N 47°59' W 122°13'0 0.0
2015-May-19 20:19N 47°59' W 122°13'0 0.0
2015-May-19 18:31N 47°59' W 122°13'0 0.0
2015-May-19 17:22N 47°59' W 122°13'0 0.0
2015-May-19 16:22N 47°59' W 122°13'0 0.0
2015-May-19 15:28N 47°59' W 122°13'0 0.0
2015-May-19 14:28N 47°59' W 122°13'0 0.0
2015-May-19 13:28N 47°59' W 122°13'0 0.0
2015-May-19 12:28N 47°59' W 122°13'0 0.0
2015-May-19 11:28N 47°59' W 122°13'0 0.0
2015-May-19 10:28N 47°59' W 122°13'0 0.0
2015-May-19 09:28N 47°59' W 122°13'0 0.0
2015-May-19 08:10N 47°59' W 122°13'0 0.0
2015-May-19 07:28N 47°59' W 122°13'0 0.0
2015-May-19 06:28N 47°59' W 122°13'0 0.0
2015-May-19 05:28N 47°59' W 122°13'0 0.0
2015-May-19 04:28N 47°59' W 122°13'  
Track history (hours):
 
Tides and Currents Weather Stations Pressure Air Temp Water Temp Dewpoint Dewpoint Depression Visibility Wind Speed Wind Dir Waves Ship Positions

Barbara Foss

Owner: Foss International, Inc, SEATTLE, WA. More information available from US FCC via Universal Licensing System and Coast Guard Vessel Documentation Center.

Last reported at 2015-May-29 03:34 UTC. Time now 2015-May-29 04:11 UTC.
Position N 47°38' W 122°23'.

Length 39 m; draft 5.5 m.

Type: Tow > 200 m length. MMSI: 366932130.

Date/timePositionNaut miles runAvg speedWind from/ knotsBaromVisibWave heightAir tempDewpointWater temp
2015-May-29 03:34N 47°38' W 122°23'0 0.0
2015-May-29 03:18N 47°38' W 122°23'0 0.0
2015-May-29 02:34N 47°38' W 122°23'0 0.0
2015-May-29 02:18N 47°38' W 122°23'0 0.0
2015-May-29 01:28N 47°38' W 122°23'0 0.0
2015-May-29 01:03N 47°38' W 122°23'0 0.0
2015-May-29 00:33N 47°38' W 122°23'0 0.0
2015-May-29 00:31N 47°38' W 122°23'0 0.0
2015-May-28 23:34N 47°38' W 122°23'0 0.0
2015-May-28 23:27N 47°38' W 122°23'0 0.0
2015-May-28 22:31N 47°38' W 122°23'0 0.0
2015-May-28 22:27N 47°38' W 122°23'0 0.0
2015-May-28 21:31N 47°38' W 122°23'0 0.0
2015-May-28 21:27N 47°38' W 122°23'0 0.0
2015-May-28 20:34N 47°38' W 122°23'0 0.0
2015-May-28 20:21N 47°38' W 122°23'0 0.0
2015-May-28 19:34N 47°38' W 122°23'0 0.0
2015-May-28 19:30N 47°38' W 122°23'0 0.0
2015-May-28 18:28N 47°38' W 122°23'0 0.0
2015-May-28 17:48N 47°38' W 122°23'0 0.0
2015-May-28 17:31N 47°38' W 122°23'0 0.0
2015-May-28 17:18N 47°38' W 122°23'0 0.0
2015-May-28 16:31N 47°38' W 122°23'0 0.0
2015-May-28 16:27N 47°38' W 122°23'0 0.0
2015-May-28 15:28N 47°38' W 122°23'0 0.0
2015-May-28 15:27N 47°38' W 122°23'0 0.0
2015-May-28 14:31N 47°38' W 122°23'0 0.0
2015-May-28 14:27N 47°38' W 122°23'0 0.0
2015-May-28 13:31N 47°38' W 122°23'0 0.0
2015-May-28 13:27N 47°38' W 122°23'0 0.0
2015-May-28 12:31N 47°38' W 122°23'0 0.0
2015-May-28 12:21N 47°38' W 122°23'0 0.0
2015-May-28 11:33N 47°38' W 122°23'0 0.0
2015-May-28 11:32N 47°38' W 122°23'2 1.7
2015-May-28 10:33N 47°36' W 122°23'0 6.5
2015-May-28 10:32N 47°36' W 122°23'7 7.0
2015-May-28 09:33N 47°43' W 122°26'0 7.5
2015-May-28 09:32N 47°43' W 122°26'8 7.9
2015-May-28 08:33N 47°51' W 122°23'8 8.0
2015-May-28 07:33N 47°58' W 122°17'3 1.4
2015-May-28 05:31N 47°59' W 122°13'0 0.0
2015-May-28 04:31N 47°59' W 122°13'0 0.0
2015-May-28 03:25N 47°59' W 122°13'3 3.9
2015-May-28 02:34N 47°57' W 122°18'5 8.3
2015-May-28 01:59N 47°53' W 122°21'4 8.8
2015-May-28 01:33N 47°50' W 122°24'1 9.1
2015-May-28 01:29N 47°49' W 122°24'9 9.4
2015-May-28 00:33N 47°41' W 122°27'2 8.9
2015-May-28 00:19N 47°39' W 122°26'3 3.7
2015-May-27 23:33N 47°37' W 122°23'0 9.4
2015-May-27 23:33N 47°37' W 122°23'2 0.9
2015-May-27 21:22N 47°35' W 122°21'0 0.0
2015-May-27 21:22N 47°35' W 122°21'0 0.0
2015-May-27 20:07N 47°35' W 122°21'0 0.0
2015-May-27 20:07N 47°35' W 122°21'0 0.0
2015-May-27 19:01N 47°35' W 122°21'0 0.0
2015-May-27 18:16N 47°35' W 122°21'0 0.0
2015-May-27 16:59N 47°35' W 122°21'2 3.6
2015-May-27 16:34N 47°37' W 122°22'014.4
2015-May-27 16:33N 47°37' W 122°22'1 1.3
2015-May-27 15:33N 47°38' W 122°23'0 0.0
2015-May-27 14:33N 47°38' W 122°23'0 0.0
2015-May-27 14:33N 47°38' W 122°23'0 0.0
2015-May-27 13:33N 47°38' W 122°23'0 0.0
2015-May-27 13:33N 47°38' W 122°23'0 0.0
2015-May-27 12:33N 47°38' W 122°23'0 0.0
2015-May-27 12:12N 47°38' W 122°23'0 0.0
2015-May-27 11:33N 47°38' W 122°23'0 0.0
2015-May-27 11:27N 47°38' W 122°23'0 0.0
2015-May-27 10:33N 47°38' W 122°23'0 0.0
2015-May-27 10:27N 47°38' W 122°23'0 0.0
2015-May-27 09:33N 47°38' W 122°23'0 0.0
2015-May-27 09:27N 47°38' W 122°23'0 0.0
2015-May-27 08:33N 47°38' W 122°23'0 0.0
2015-May-27 08:27N 47°38' W 122°23'0 0.0
2015-May-27 07:33N 47°38' W 122°23'0 0.0
2015-May-27 07:06N 47°38' W 122°23'0 0.0
2015-May-27 06:33N 47°38' W 122°23'0 0.0
2015-May-27 06:21N 47°38' W 122°23'0 0.0
2015-May-27 06:06N 47°38' W 122°23'0 0.0
2015-May-27 05:27N 47°38' W 122°23'0 0.0
2015-May-27 04:33N 47°38' W 122°23'0 0.0
2015-May-27 04:21N 47°38' W 122°23'0 0.0
2015-May-27 03:33N 47°38' W 122°23'0 0.0
2015-May-27 03:30N 47°38' W 122°23'0 0.0
2015-May-27 02:33N 47°38' W 122°23'0 0.0
2015-May-27 02:30N 47°38' W 122°23'0 0.0
2015-May-27 01:33N 47°38' W 122°23'0 0.0
2015-May-27 01:09N 47°38' W 122°23'0 0.0
2015-May-27 00:33N 47°38' W 122°23'0 0.0
2015-May-27 00:24N 47°38' W 122°23'0 0.0
2015-May-26 23:33N 47°38' W 122°23'0 0.0
2015-May-26 23:09N 47°38' W 122°23'0 0.0
2015-May-26 22:33N 47°38' W 122°23'0 0.0
2015-May-26 22:24N 47°38' W 122°23'0 0.0
2015-May-26 21:33N 47°38' W 122°23'0 2.6
2015-May-26 21:29N 47°38' W 122°23'9 9.3
2015-May-26 20:34N 47°46' W 122°25'010.8
2015-May-26 20:33N 47°46' W 122°25'1212.2
2015-May-26 19:33N 47°57' W 122°18'3 3.4
2015-May-26 18:32N 47°59' W 122°13'0 0.0
2015-May-26 17:29N 47°59' W 122°13'0 0.0
2015-May-26 16:29N 47°59' W 122°13'0 0.0
2015-May-26 15:29N 47°59' W 122°13'0 0.0
2015-May-26 14:23N 47°59' W 122°13'0 0.0
2015-May-26 13:32N 47°59' W 122°13'0 0.0
2015-May-26 12:29N 47°59' W 122°13'0 0.0
2015-May-26 11:29N 47°59' W 122°13'0 0.0
2015-May-26 10:23N 47°59' W 122°13'0 0.0
2015-May-26 09:17N 47°59' W 122°13'0 0.0
2015-May-26 08:32N 47°59' W 122°13'0 0.0
2015-May-26 07:32N 47°59' W 122°13'0 0.0
2015-May-26 06:32N 47°59' W 122°13'0 0.0
2015-May-26 05:29N 47°59' W 122°13'0 0.0
2015-May-26 04:05N 47°59' W 122°13'0 0.0
2015-May-26 03:17N 47°59' W 122°13'0 0.0
2015-May-26 02:32N 47°59' W 122°13'0 0.0
2015-May-26 01:29N 47°59' W 122°13'0 0.0
2015-May-26 00:32N 47°59' W 122°13'0 0.0
2015-May-25 23:23N 47°59' W 122°13'0 0.0
2015-May-25 22:29N 47°59' W 122°13'0 0.0
2015-May-25 21:29N 47°59' W 122°13'0 0.0
2015-May-25 20:32N 47°59' W 122°13'0 0.0
2015-May-25 19:17N 47°59' W 122°13'0 0.0
2015-May-25 18:29N 47°59' W 122°13'0 0.0
2015-May-25 17:29N 47°59' W 122°13'0 0.0
2015-May-25 16:29N 47°59' W 122°13'0 0.0
2015-May-25 15:29N 47°59' W 122°13'0 0.0
2015-May-25 14:29N 47°59' W 122°13'0 0.0
2015-May-25 13:29N 47°59' W 122°13'0 0.0
2015-May-25 12:29N 47°59' W 122°13'0 0.0
2015-May-25 11:29N 47°59' W 122°13'0 0.0
2015-May-25 10:17N 47°59' W 122°13'0 0.0
2015-May-25 09:11N 47°59' W 122°13'0 0.0
2015-May-25 08:29N 47°59' W 122°13'0 0.0
2015-May-25 07:29N 47°59' W 122°13'0 0.0
2015-May-25 06:32N 47°59' W 122°13'0 0.0
2015-May-25 05:32N 47°59' W 122°13'0 0.0
2015-May-25 04:29N 47°59' W 122°13'0 0.0
2015-May-25 03:29N 47°59' W 122°13'0 0.0
2015-May-25 01:11N 47°59' W 122°13'0 0.0
2015-May-25 00:32N 47°59' W 122°13'0 0.0
2015-May-24 23:32N 47°59' W 122°13'0 0.0
2015-May-24 22:32N 47°59' W 122°13'0 0.0
2015-May-24 21:32N 47°59' W 122°13'0 0.0
2015-May-24 20:32N 47°59' W 122°13'0 0.0
2015-May-24 19:29N 47°59' W 122°13'0 0.0
2015-May-24 18:32N 47°59' W 122°13'0 0.0
2015-May-24 17:23N 47°59' W 122°13'0 0.0
2015-May-24 16:26N 47°59' W 122°13'0 0.1
2015-May-24 15:33N 47°59' W 122°13'4 4.4
2015-May-24 14:33N 47°57' W 122°19'4 8.9
2015-May-24 14:04N 47°53' W 122°22'5 9.9
2015-May-24 13:34N 47°48' W 122°25'1 9.8
2015-May-24 13:29N 47°48' W 122°25'910.1
2015-May-24 12:34N 47°38' W 122°26'1 9.8
2015-May-24 12:29N 47°38' W 122°25'1 1.4
2015-May-24 11:31N 47°38' W 122°23'0 0.0
2015-May-24 11:19N 47°38' W 122°23'0 0.0
2015-May-24 10:34N 47°38' W 122°23'0 0.0
2015-May-24 10:31N 47°38' W 122°23'0 0.0
2015-May-24 09:31N 47°38' W 122°23'0 0.0
2015-May-24 09:28N 47°38' W 122°23'0 0.0
2015-May-24 08:31N 47°38' W 122°23'0 0.0
2015-May-24 08:28N 47°38' W 122°23'0 0.0
2015-May-24 07:31N 47°38' W 122°23'0 0.0
2015-May-24 07:28N 47°38' W 122°23'0 0.0
2015-May-24 06:31N 47°38' W 122°23'0 0.0
2015-May-24 06:28N 47°38' W 122°23'0 0.0
2015-May-24 05:58N 47°38' W 122°23'0 0.0
2015-May-24 05:31N 47°38' W 122°23'0 0.0
2015-May-24 04:31N 47°38' W 122°23'0 0.0
2015-May-24 04:22N 47°38' W 122°23'0 0.0
2015-May-24 03:25N 47°38' W 122°23'0 0.0
2015-May-24 03:22N 47°38' W 122°23'0 0.0
2015-May-24 02:31N 47°38' W 122°23'0 0.0
2015-May-24 02:22N 47°38' W 122°23'0 0.0
2015-May-24 01:31N 47°38' W 122°23'0 0.0
2015-May-24 01:22N 47°38' W 122°23'0 0.0
2015-May-24 00:31N 47°38' W 122°23'0 0.0
2015-May-24 00:31N 47°38' W 122°23'0 0.0
2015-May-23 23:25N 47°38' W 122°23'0 0.0
2015-May-23 23:22N 47°38' W 122°23'0 0.0
2015-May-23 22:31N 47°38' W 122°23'0 0.0
2015-May-23 21:31N 47°38' W 122°23'0 0.0
2015-May-23 20:31N 47°38' W 122°23'0 0.0
2015-May-23 20:19N 47°38' W 122°23'0 0.0
2015-May-23 19:31N 47°38' W 122°23'0 0.0
2015-May-23 18:31N 47°38' W 122°23'0 0.0
2015-May-23 17:28N 47°38' W 122°23'0 0.0
2015-May-23 17:13N 47°38' W 122°23'0 0.0
2015-May-23 16:28N 47°38' W 122°23'0 0.0
2015-May-23 15:28N 47°38' W 122°23'0 0.0
2015-May-23 15:01N 47°38' W 122°23'0 0.0
2015-May-23 14:31N 47°38' W 122°23'0 0.0
2015-May-23 13:25N 47°38' W 122°23'0 0.0
2015-May-23 12:31N 47°38' W 122°23'0 0.0
2015-May-23 11:31N 47°38' W 122°23'0 0.0
2015-May-23 11:19N 47°38' W 122°23'0 0.0
2015-May-23 10:31N 47°38' W 122°23'0 0.0
2015-May-23 09:31N 47°38' W 122°23'0 0.0
2015-May-23 08:28N 47°38' W 122°23'0 0.0
2015-May-23 07:28N 47°38' W 122°23'0 0.0
2015-May-23 06:52N 47°38' W 122°23'0 0.0
2015-May-23 06:28N 47°38' W 122°23'0 0.0
2015-May-23 06:22N 47°38' W 122°23'0 0.0
2015-May-23 05:52N 47°38' W 122°23'0 0.0
2015-May-23 05:28N 47°38' W 122°23'0 0.0
2015-May-23 04:28N 47°38' W 122°23'0 0.0
2015-May-23 03:22N 47°38' W 122°23'0 0.0
2015-May-23 03:16N 47°38' W 122°23'0 0.0
2015-May-23 02:31N 47°38' W 122°23'0 0.0
2015-May-23 02:31N 47°38' W 122°23'0 0.0
2015-May-23 01:33N 47°38' W 122°23'0 0.0
2015-May-23 01:24N 47°38' W 122°23'2 2.4
2015-May-23 00:29N 47°40' W 122°24'0 0.0
2015-May-23 00:29N 47°40' W 122°24'0 0.2
2015-May-22 23:27N 47°40' W 122°24'0 0.0
2015-May-22 23:24N 47°40' W 122°24'0 0.1
2015-May-22 22:26N 47°40' W 122°23'0 1.7
2015-May-22 22:24N 47°40' W 122°23'1 1.3
2015-May-22 21:32N 47°39' W 122°22'0 0.0
2015-May-22 21:23N 47°39' W 122°22'0 0.0
2015-May-22 20:26N 47°39' W 122°22'0 0.0
2015-May-22 20:08N 47°39' W 122°22'0 0.1
2015-May-22 19:32N 47°39' W 122°22'0 0.0
2015-May-22 19:08N 47°39' W 122°22'0 0.0
2015-May-22 18:32N 47°39' W 122°22'0 0.0
2015-May-22 18:32N 47°39' W 122°22'0 0.1
2015-May-22 17:23N 47°39' W 122°22'0 0.0
2015-May-22 16:41N 47°39' W 122°22'0 0.0
2015-May-22 16:23N 47°39' W 122°22'0 0.0
2015-May-22 14:59N 47°39' W 122°22'0 0.0
2015-May-22 14:23N 47°39' W 122°22'0 0.0
2015-May-22 13:29N 47°39' W 122°22'0 0.0
2015-May-22 12:11N 47°39' W 122°22'0 0.0
2015-May-22 11:47N 47°39' W 122°22'0 0.0
2015-May-22 11:17N 47°39' W 122°22'0 0.0
2015-May-22 11:17N 47°39' W 122°22'0 0.0
2015-May-22 10:29N 47°39' W 122°22'0 0.0
2015-May-22 10:17N 47°39' W 122°22'0 0.0
2015-May-22 09:32N 47°39' W 122°22'0 0.0
2015-May-22 09:32N 47°39' W 122°22'0 0.0
2015-May-22 08:11N 47°39' W 122°22'0 0.0
2015-May-22 08:05N 47°39' W 122°22'0 0.0
2015-May-22 07:23N 47°39' W 122°22'0 0.0
2015-May-22 07:00N 47°39' W 122°22'1 2.6
2015-May-22 06:33N 47°40' W 122°23'0 4.4
2015-May-22 06:30N 47°40' W 122°24'4 5.4
2015-May-22 05:45N 47°44' W 122°25'212.5
2015-May-22 05:33N 47°46' W 122°25'1211.6
2015-May-22 04:34N 47°57' W 122°19'4 3.7
2015-May-22 03:28N 47°59' W 122°14'0 0.1
2015-May-22 01:28N 47°59' W 122°13'0 0.0
2015-May-22 00:31N 47°59' W 122°13'0 0.0
2015-May-21 23:31N 47°59' W 122°13'0 0.0
2015-May-21 22:28N 47°59' W 122°13'0 0.0
2015-May-21 21:19N 47°59' W 122°13'0 0.0
2015-May-21 20:28N 47°59' W 122°13'0 0.0
2015-May-21 18:28N 47°59' W 122°13'0 0.0
2015-May-21 17:22N 47°59' W 122°13'0 0.0
2015-May-21 16:28N 47°59' W 122°13'0 0.0
2015-May-21 15:16N 47°59' W 122°13'0 0.0
2015-May-21 13:22N 47°59' W 122°13'0 0.0
2015-May-21 12:28N 47°59' W 122°13'0 0.0
2015-May-21 11:28N 47°59' W 122°13'0 0.0
2015-May-21 10:28N 47°59' W 122°13'0 0.0
2015-May-21 09:28N 47°59' W 122°13'0 0.0
2015-May-21 08:28N 47°59' W 122°13'0 0.0
2015-May-21 07:22N 47°59' W 122°13'0 0.0
2015-May-21 06:22N 47°59' W 122°13'0 0.0
2015-May-21 05:31N 47°59' W 122°13'0 0.0
2015-May-21 04:28N 47°59' W 122°13'0 0.0
2015-May-21 03:28N 47°59' W 122°13'0 0.0
2015-May-21 02:22N 47°59' W 122°13'0 0.0
2015-May-21 01:28N 47°59' W 122°13'0 0.0
2015-May-21 00:16N 47°59' W 122°13'0 0.0
2015-May-20 23:16N 47°59' W 122°13'0 0.0
2015-May-20 22:28N 47°59' W 122°13'0 0.0
2015-May-20 21:28N 47°59' W 122°13'0 0.0
2015-May-20 20:28N 47°59' W 122°13'0 0.0
2015-May-20 19:28N 47°59' W 122°13'0 0.0
2015-May-20 18:28N 47°59' W 122°13'0 0.0
2015-May-20 17:28N 47°59' W 122°13'0 0.0
2015-May-20 16:28N 47°59' W 122°13'0 0.0
2015-May-20 15:28N 47°59' W 122°13'0 0.0
2015-May-20 14:28N 47°59' W 122°13'0 0.0
2015-May-20 13:28N 47°59' W 122°13'0 0.0
2015-May-20 12:28N 47°59' W 122°13'0 0.0
2015-May-20 11:22N 47°59' W 122°13'0 0.0
2015-May-20 10:28N 47°59' W 122°13'0 0.0
2015-May-20 09:28N 47°59' W 122°13'0 0.0
2015-May-20 08:22N 47°59' W 122°13'0 0.0
2015-May-20 07:28N 47°59' W 122°13'0 0.0
2015-May-20 06:16N 47°59' W 122°13'0 0.0
2015-May-20 05:28N 47°59' W 122°13'0 0.0
2015-May-20 04:28N 47°59' W 122°13'0 0.0
2015-May-20 03:16N 47°59' W 122°13'0 0.0
2015-May-20 01:28N 47°59' W 122°13'0 0.0
2015-May-20 00:28N 47°59' W 122°13'0 0.0
2015-May-19 23:28N 47°59' W 122°13'0 0.0
2015-May-19 21:31N 47°59' W 122°13'0 0.0
2015-May-19 20:19N 47°59' W 122°13'0 0.0
2015-May-19 18:31N 47°59' W 122°13'0 0.0
2015-May-19 17:22N 47°59' W 122°13'0 0.0
2015-May-19 16:22N 47°59' W 122°13'0 0.0
2015-May-19 15:28N 47°59' W 122°13'0 0.0
2015-May-19 14:28N 47°59' W 122°13'0 0.0
2015-May-19 13:28N 47°59' W 122°13'0 0.0
2015-May-19 12:28N 47°59' W 122°13'0 0.0
2015-May-19 11:28N 47°59' W 122°13'0 0.0
2015-May-19 10:28N 47°59' W 122°13'0 0.0
2015-May-19 09:28N 47°59' W 122°13'0 0.0
2015-May-19 08:10N 47°59' W 122°13'0 0.0
2015-May-19 07:28N 47°59' W 122°13'0 0.0
2015-May-19 06:28N 47°59' W 122°13'0 0.0
2015-May-19 05:28N 47°59' W 122°13'0 0.0
2015-May-19 04:28N 47°59' W 122°13'  

Dump ship's entire track history